createdAt,value
2023-01-29T00:01:15.584Z,100861.13
2023-01-29T00:05:27.496Z,100865.08
2023-01-29T00:09:30.295Z,100848.46
2023-01-29T00:13:22.366Z,100836.66
2023-01-29T00:17:15.841Z,100824.92
2023-01-29T00:21:20.542Z,100812.27
2023-01-29T00:25:21.256Z,100806.61
2023-01-29T00:29:23.434Z,100811.35
2023-01-29T00:33:14.501Z,100808.91
2023-01-29T00:36:56.377Z,100800.95
2023-01-29T00:40:56.601Z,100798.36
2023-01-29T00:44:43.965Z,100796.59
2023-01-29T00:48:46.358Z,100795.19
2023-01-29T00:52:49.632Z,100795.92
2023-01-29T00:56:51.939Z,100796.92
2023-01-29T01:01:34.194Z,100789.99
2023-01-29T01:05:44.715Z,100788.58
2023-01-29T01:09:51.976Z,100789.42
2023-01-29T01:13:57.155Z,100791.29
2023-01-29T01:17:52.064Z,100781.27
2023-01-29T01:22:04.452Z,100778.34
2023-01-29T01:26:18.164Z,100772.63
2023-01-29T01:30:20.799Z,100770.48
2023-01-29T01:34:23.077Z,100770.06
2023-01-29T01:38:18.329Z,100772.99
2023-01-29T01:42:15.908Z,100756.41
2023-01-29T01:46:18.138Z,100746.73
2023-01-29T01:50:12.086Z,100751.25
2023-01-29T01:54:17.287Z,100751.63
2023-01-29T01:58:19.670Z,100764.98
2023-01-29T02:05:36.407Z,100754.05
2023-01-29T02:09:56.950Z,100748.10
2023-01-29T02:13:49.450Z,100747.67
2023-01-29T02:17:34.350Z,100743.52
2023-01-29T02:21:29.322Z,100731.42
2023-01-29T02:25:58.947Z,100727.80
2023-01-29T02:30:04.847Z,100731.63
2023-01-29T02:34:11.734Z,100734.86
2023-01-29T02:38:07.551Z,100739.70
2023-01-29T02:42:15.733Z,100745.73
2023-01-29T02:46:25.116Z,100753.05
2023-01-29T02:50:30.117Z,100743.71
2023-01-29T02:54:42.783Z,100749.75
2023-01-29T02:58:18.685Z,100759.44
2023-01-29T03:02:33.011Z,100751.83
2023-01-29T03:06:44.055Z,100752.67
2023-01-29T03:10:29.535Z,100742.45
2023-01-29T03:14:32.125Z,100744.00
2023-01-29T03:18:27.736Z,100739.60
2023-01-29T03:22:38.476Z,100723.39
2023-01-29T03:26:17.124Z,100723.11
2023-01-29T03:30:10.785Z,100729.16
2023-01-29T03:34:06.437Z,100718.81
2023-01-29T03:38:11.747Z,100716.46
2023-01-29T03:42:20.415Z,100719.04
2023-01-29T03:46:24.344Z,100718.46
2023-01-29T03:50:00.673Z,100717.91
2023-01-29T03:53:56.493Z,100711.86
2023-01-29T03:58:10.449Z,100705.27
2023-01-29T04:02:25.135Z,100700.04
2023-01-29T04:06:27.405Z,100709.70
2023-01-29T04:10:30.761Z,100706.23
2023-01-29T04:14:33.642Z,100695.87
2023-01-29T04:18:21.782Z,100696.41
2023-01-29T04:22:24.228Z,100683.08
2023-01-29T04:26:25.369Z,100676.26
2023-01-29T04:30:37.637Z,100664.16
2023-01-29T04:34:38.037Z,100650.20
2023-01-29T04:38:49.093Z,100639.70
2023-01-29T04:42:57.636Z,100637.34
2023-01-29T04:47:02.948Z,100637.61
2023-01-29T04:51:06.142Z,100633.59
2023-01-29T04:55:14.403Z,100628.21
2023-01-29T04:59:19.771Z,100619.07
2023-01-29T05:03:07.017Z,100624.98
2023-01-29T05:07:09.231Z,100620.84
2023-01-29T05:10:46.471Z,100618.62
2023-01-29T05:14:39.131Z,100609.64
2023-01-29T05:18:12.586Z,100610.14
2023-01-29T05:21:47.535Z,100603.91
2023-01-29T05:26:02.908Z,100609.80
2023-01-29T05:29:50.062Z,100606.84
2023-01-29T05:33:42.790Z,100609.43
2023-01-29T05:37:43.063Z,100613.41
2023-01-29T05:41:45.277Z,100607.52
2023-01-29T05:45:36.166Z,100605.13
2023-01-29T05:49:22.257Z,100606.52
2023-01-29T05:53:19.709Z,100612.05
2023-01-29T05:56:44.963Z,100604.98
2023-01-29T06:00:37.791Z,100611.40
2023-01-29T06:04:40.060Z,100629.02
2023-01-29T06:08:45.147Z,100635.52
2023-01-29T06:12:40.267Z,100649.70
2023-01-29T06:16:45.779Z,100650.34
2023-01-29T06:20:45.403Z,100655.14
2023-01-29T06:24:44.821Z,100658.06
2023-01-29T06:28:45.996Z,100662.55
2023-01-29T06:32:40.707Z,100668.92
2023-01-29T06:36:42.104Z,100660.25
2023-01-29T06:40:40.673Z,100676.70
2023-01-29T06:44:37.899Z,100677.50
2023-01-29T06:48:46.825Z,100677.53
2023-01-29T06:52:31.223Z,100674.48
2023-01-29T06:56:33.455Z,100671.58
2023-01-29T07:00:25.415Z,100671.30
2023-01-29T07:04:20.912Z,100669.79
2023-01-29T07:08:08.793Z,100656.34
2023-01-29T07:12:13.068Z,100652.88
2023-01-29T07:16:11.244Z,100649.80
2023-01-29T07:19:53.410Z,100651.23
2023-01-29T07:23:55.814Z,100641.55
2023-01-29T07:27:48.082Z,100641.56
2023-01-29T07:31:39.042Z,100628.95
2023-01-29T07:35:27.091Z,100627.05
2023-01-29T07:39:19.229Z,100623.94
2023-01-29T07:43:14.835Z,100620.30
2023-01-29T07:47:17.387Z,100614.94
2023-01-29T07:51:13.485Z,100607.68
2023-01-29T07:55:05.541Z,100608.38
2023-01-29T07:59:06.472Z,100617.71
2023-01-29T08:03:08.700Z,100612.34
2023-01-29T08:07:10.899Z,100615.30
2023-01-29T08:11:13.625Z,100618.23
2023-01-29T08:15:11.680Z,100617.88
2023-01-29T08:19:13.934Z,100607.50
2023-01-29T08:23:15.757Z,100607.85
2023-01-29T08:26:58.398Z,100592.98
2023-01-29T08:30:51.029Z,100590.55
2023-01-29T08:34:56.228Z,100578.25
2023-01-29T08:38:58.108Z,100588.11
2023-01-29T08:42:49.216Z,100592.10
2023-01-29T08:46:41.565Z,100581.54
2023-01-29T08:50:43.898Z,100582.93
2023-01-29T08:54:28.969Z,100592.28
2023-01-29T08:58:19.730Z,100595.56
2023-01-29T09:02:09.543Z,100591.23
2023-01-29T09:06:11.650Z,100595.20
2023-01-29T09:10:13.892Z,100589.33
2023-01-29T09:14:16.111Z,100585.70
2023-01-29T09:18:11.485Z,100574.45
2023-01-29T09:21:48.852Z,100571.00
2023-01-29T09:25:54.074Z,100570.29
2023-01-29T09:29:38.117Z,100573.92
2023-01-29T09:33:23.386Z,100571.16
2023-01-29T09:37:25.176Z,100578.92
2023-01-29T09:41:30.084Z,100571.81
2023-01-29T09:45:56.471Z,100573.71
2023-01-29T09:50:06.452Z,100577.38
2023-01-29T09:54:07.096Z,100575.47
2023-01-29T09:58:09.332Z,100571.13
2023-01-29T10:02:17.310Z,100573.04
2023-01-29T10:06:32.243Z,100572.51
2023-01-29T10:10:34.482Z,100577.53
2023-01-29T10:14:55.902Z,100576.70
2023-01-29T10:19:10.259Z,100574.27
2023-01-29T10:23:12.451Z,100558.34
2023-01-29T10:27:13.204Z,100550.36
2023-01-29T10:31:09.230Z,100534.27
2023-01-29T10:35:13.911Z,100514.16
2023-01-29T10:39:25.202Z,100501.52
2023-01-29T10:43:06.724Z,100494.90
2023-01-29T10:47:07.270Z,100507.02
2023-01-29T10:51:21.143Z,100502.14
2023-01-29T10:55:40.101Z,100490.05
2023-01-29T10:59:48.370Z,100483.32
2023-01-29T11:03:47.381Z,100485.56
2023-01-29T11:07:49.594Z,100477.91
2023-01-29T11:11:57.506Z,100469.75
2023-01-29T11:15:46.928Z,100480.48
2023-01-29T11:19:48.645Z,100473.75
2023-01-29T11:23:59.919Z,100478.29
2023-01-29T11:28:08.351Z,100483.60
2023-01-29T11:32:16.859Z,100491.78
2023-01-29T11:35:58.481Z,100486.04
2023-01-29T11:40:09.520Z,100476.45
2023-01-29T11:44:13.808Z,100450.92
2023-01-29T11:48:16.563Z,100439.86
2023-01-29T11:52:17.975Z,100436.02
2023-01-29T11:56:14.609Z,100428.56
2023-01-29T12:00:16.153Z,100423.02
2023-01-29T12:04:24.297Z,100424.42
2023-01-29T12:08:25.529Z,100434.07
2023-01-29T12:12:12.867Z,100424.98
2023-01-29T12:16:15.183Z,100418.24
2023-01-29T12:20:17.811Z,100416.98
2023-01-29T12:24:35.197Z,100414.70
2023-01-29T12:28:54.091Z,100397.55
2023-01-29T12:33:18.001Z,100394.60
2023-01-29T12:37:27.283Z,100391.81
2023-01-29T12:41:35.353Z,100397.14
2023-01-29T12:45:37.578Z,100392.27
2023-01-29T12:49:33.627Z,100392.13
2023-01-29T12:53:40.341Z,100389.34
2023-01-29T12:58:15.926Z,100380.00
2023-01-29T13:02:33.738Z,100363.17
2023-01-29T13:07:43.914Z,100366.96
2023-01-29T13:11:05.304Z,100345.22
2023-01-29T13:15:14.394Z,100326.98
2023-01-29T13:19:02.729Z,100332.58
2023-01-29T13:23:00.573Z,100326.96
2023-01-29T13:26:38.279Z,100329.54
2023-01-29T13:30:42.956Z,100333.69
2023-01-29T13:35:21.065Z,100336.61
2023-01-29T13:39:23.151Z,100335.85
2023-01-29T13:43:10.997Z,100337.73
2023-01-29T13:47:13.170Z,100339.42
2023-01-29T13:51:14.854Z,100332.79
2023-01-29T13:54:56.680Z,100338.19
2023-01-29T13:58:56.046Z,100337.72
2023-01-29T14:02:56.917Z,100339.95
2023-01-29T14:07:17.367Z,100332.25
2023-01-29T14:10:56.469Z,100329.71
2023-01-29T14:14:56.766Z,100328.80
2023-01-29T14:19:08.856Z,100335.17
2023-01-29T14:23:11.059Z,100326.84
2023-01-29T14:26:56.982Z,100328.34
2023-01-29T14:30:59.280Z,100331.00
2023-01-29T14:35:02.661Z,100327.83
2023-01-29T14:38:58.658Z,100324.36
2023-01-29T14:42:59.646Z,100319.65
2023-01-29T14:47:13.606Z,100315.79
2023-01-29T14:51:31.007Z,100313.48
2023-01-29T14:55:33.174Z,100307.09
2023-01-29T14:59:44.031Z,100304.63
2023-01-29T15:03:39.703Z,100299.85
2023-01-29T15:07:39.378Z,100296.20
2023-01-29T15:11:54.470Z,100300.86
2023-01-29T15:16:05.953Z,100302.45
2023-01-29T15:20:16.643Z,100292.90
2023-01-29T15:24:21.791Z,100293.77
2023-01-29T15:28:07.766Z,100284.09
2023-01-29T15:32:07.176Z,100286.84
2023-01-29T15:36:57.435Z,100280.63
2023-01-29T15:40:41.023Z,100274.23
2023-01-29T15:44:26.231Z,100268.28
2023-01-29T15:48:22.708Z,100262.31
2023-01-29T15:52:25.005Z,100264.94
2023-01-29T15:56:27.466Z,100256.30
2023-01-29T16:00:32.703Z,100254.08
2023-01-29T16:04:34.230Z,100251.23
2023-01-29T16:08:36.415Z,100247.74
2023-01-29T16:12:38.897Z,100243.93
2023-01-29T16:16:49.746Z,100241.45
2023-01-29T16:20:28.354Z,100238.65
2023-01-29T16:24:30.651Z,100228.74
2023-01-29T16:28:32.827Z,100218.83
2023-01-29T16:32:26.714Z,100224.55
2023-01-29T16:36:27.826Z,100223.25
2023-01-29T16:40:21.586Z,100222.09
2023-01-29T16:44:23.761Z,100216.89
2023-01-29T16:48:36.127Z,100217.48
2023-01-29T16:52:39.379Z,100212.79
2023-01-29T16:56:40.136Z,100211.90
2023-01-29T17:00:37.219Z,100212.77
2023-01-29T17:04:38.032Z,100215.88
2023-01-29T17:08:28.023Z,100211.86
2023-01-29T17:12:17.236Z,100213.75
2023-01-29T17:16:34.719Z,100205.70
2023-01-29T17:20:33.898Z,100210.52
2023-01-29T17:24:20.357Z,100210.79
2023-01-29T17:28:05.334Z,100202.02
2023-01-29T17:32:02.563Z,100195.65
2023-01-29T17:35:57.877Z,100196.15
2023-01-29T17:39:45.375Z,100185.19
2023-01-29T17:43:23.175Z,100178.78
2023-01-29T17:47:25.442Z,100182.56
2023-01-29T17:51:28.419Z,100173.40
2023-01-29T17:55:23.511Z,100160.24
2023-01-29T17:59:25.877Z,100151.02
2023-01-29T18:03:27.155Z,100154.86
2023-01-29T18:07:31.867Z,100151.48
2023-01-29T18:11:36.684Z,100152.80
2023-01-29T18:15:37.753Z,100149.91
2023-01-29T18:19:25.096Z,100141.79
2023-01-29T18:23:05.728Z,100140.62
2023-01-29T18:26:36.532Z,100140.42
2023-01-29T18:30:32.270Z,100133.13
2023-01-29T18:34:43.060Z,100119.44
2023-01-29T18:38:47.564Z,100112.34
2023-01-29T18:42:44.069Z,100097.96
2023-01-29T18:46:23.481Z,100085.52
2023-01-29T18:50:24.399Z,100078.02
2023-01-29T18:54:28.914Z,100071.08
2023-01-29T18:58:27.151Z,100065.33
2023-01-29T19:02:29.551Z,100057.95
2023-01-29T19:06:32.386Z,100051.93
2023-01-29T19:10:35.748Z,100047.11
2023-01-29T19:14:37.998Z,100053.39
2023-01-29T19:18:28.433Z,100041.01
2023-01-29T19:22:20.493Z,100040.66
2023-01-29T19:26:17.947Z,100024.20
2023-01-29T19:30:25.368Z,100019.00
2023-01-29T19:34:27.641Z,100024.69
2023-01-29T19:38:30.592Z,100026.45
2023-01-29T19:42:16.069Z,100021.96
2023-01-29T19:46:19.711Z,100025.59
2023-01-29T19:50:22.050Z,100018.27
2023-01-29T19:54:24.287Z,100017.53
2023-01-29T19:58:25.006Z,100021.48
2023-01-29T20:02:26.941Z,100019.15
2023-01-29T20:06:28.560Z,100016.86
2023-01-29T20:10:31.102Z,100013.37
2023-01-29T20:14:27.358Z,100004.80
2023-01-29T20:18:13.234Z,100002.58
2023-01-29T20:22:15.400Z,99998.68
2023-01-29T20:26:18.818Z,99997.59
2023-01-29T20:30:13.241Z,99987.08
2023-01-29T20:34:14.178Z,99986.77
2023-01-29T20:38:25.501Z,99985.24
2023-01-29T20:42:27.770Z,99978.61
2023-01-29T20:46:30.110Z,99971.39
2023-01-29T20:49:48.768Z,99976.63
2023-01-29T20:53:50.958Z,99960.54
2023-01-29T20:58:05.237Z,99952.65
2023-01-29T21:01:59.624Z,99948.34
2023-01-29T21:06:12.769Z,99937.95
2023-01-29T21:10:15.115Z,99937.27
2023-01-29T21:14:17.475Z,99932.20
2023-01-29T21:18:23.821Z,99923.35
2023-01-29T21:22:45.874Z,99906.87
2023-01-29T21:26:48.173Z,99902.58
2023-01-29T21:30:57.146Z,99893.25
2023-01-29T21:34:59.338Z,99893.10
2023-01-29T21:39:07.690Z,99882.45
2023-01-29T21:43:06.786Z,99871.00
2023-01-29T21:46:49.265Z,99871.36
2023-01-29T21:50:28.000Z,99863.98
2023-01-29T21:54:21.354Z,99854.48
2023-01-29T21:58:14.871Z,99846.38
2023-01-29T22:02:17.282Z,99837.88
2023-01-29T22:06:19.469Z,99821.20
2023-01-29T22:10:36.050Z,99815.68
2023-01-29T22:14:37.293Z,99798.52
2023-01-29T22:18:29.809Z,99793.00
2023-01-29T22:22:15.006Z,99788.85
2023-01-29T22:26:16.782Z,99778.84
2023-01-29T22:30:19.425Z,99767.82
2023-01-29T22:34:14.377Z,99764.79
2023-01-29T22:38:16.565Z,99758.39
2023-01-29T22:42:10.264Z,99746.80
2023-01-29T22:45:58.525Z,99728.63
2023-01-29T22:49:39.792Z,99726.83
2023-01-29T22:53:40.396Z,99712.44
2023-01-29T22:57:36.091Z,99709.27
2023-01-29T23:01:31.406Z,99703.36
2023-01-29T23:05:26.804Z,99688.11
2023-01-29T23:09:34.386Z,99685.27
2023-01-29T23:13:25.121Z,99667.92
2023-01-29T23:17:02.524Z,99664.43
2023-01-29T23:20:47.828Z,99653.17
2023-01-29T23:24:50.078Z,99641.06
2023-01-29T23:28:52.311Z,99644.59
2023-01-29T23:32:35.599Z,99634.92
2023-01-29T23:36:37.810Z,99624.45
2023-01-29T23:40:39.968Z,99619.39
2023-01-29T23:44:42.184Z,99615.49
2023-01-29T23:48:43.131Z,99617.60
2023-01-29T23:52:38.786Z,99613.91
2023-01-29T23:56:33.717Z,99601.16
